createdAt,value
2022-12-13T00:01:57.627Z,100640.50
2022-12-13T00:04:25.994Z,100655.19
2022-12-13T00:06:54.358Z,100651.13
2022-12-13T00:09:22.975Z,100649.56
2022-12-13T00:11:51.234Z,100653.78
2022-12-13T00:14:19.395Z,100652.75
2022-12-13T00:16:49.003Z,100660.03
2022-12-13T00:19:18.202Z,100657.34
2022-12-13T00:21:45.842Z,100662.31
2022-12-13T00:24:13.726Z,100664.56
2022-12-13T00:26:41.388Z,100670.19
2022-12-13T00:29:10.902Z,100672.41
2022-12-13T00:32:00.162Z,100667.94
2022-12-13T00:34:26.969Z,100662.69
2022-12-13T00:36:54.962Z,100662.06
2022-12-13T00:39:23.210Z,100658.13
2022-12-13T00:41:50.935Z,100662.19
2022-12-13T00:44:19.924Z,100651.00
2022-12-13T00:46:47.947Z,100653.03
2022-12-13T00:49:15.907Z,100641.50
2022-12-13T00:51:44.193Z,100640.69
2022-12-13T00:57:33.676Z,100632.94
2022-12-13T01:00:01.826Z,100629.75
2022-12-13T01:02:29.914Z,100636.84
2022-12-13T01:04:59.304Z,100636.41
2022-12-13T01:07:27.066Z,100637.47
2022-12-13T01:09:55.015Z,100638.44
2022-12-13T01:12:23.729Z,100638.97
2022-12-13T01:14:55.919Z,100639.09
2022-12-13T01:17:23.961Z,100638.78
2022-12-13T01:19:51.677Z,100648.19
2022-12-13T01:22:19.730Z,100642.81
2022-12-13T01:24:47.420Z,100640.41
2022-12-13T01:27:15.091Z,100641.59
2022-12-13T01:29:43.295Z,100642.63
2022-12-13T01:32:10.862Z,100646.66
2022-12-13T01:34:38.838Z,100641.31
2022-12-13T01:37:07.013Z,100624.00
2022-12-13T01:39:38.346Z,100605.84
2022-12-13T01:42:06.729Z,100595.44
2022-12-13T01:44:57.355Z,100584.72
2022-12-13T01:47:40.345Z,100583.13
2022-12-13T01:50:13.722Z,100581.13
2022-12-13T01:52:43.298Z,100581.22
2022-12-13T01:55:12.460Z,100577.19
2022-12-13T01:57:45.880Z,100578.38
2022-12-13T02:00:15.045Z,100571.00
2022-12-13T02:02:43.834Z,100569.19
2022-12-13T02:05:28.889Z,100566.44
2022-12-13T02:07:58.410Z,100563.91
2022-12-13T02:10:27.134Z,100574.81
2022-12-13T02:12:56.001Z,100570.00
2022-12-13T02:15:24.335Z,100569.31
2022-12-13T02:18:29.810Z,100568.53
2022-12-13T02:20:58.139Z,100568.25
2022-12-13T02:23:46.954Z,100567.22
2022-12-13T02:26:34.337Z,100571.78
2022-12-13T02:29:30.983Z,100565.47
2022-12-13T02:32:18.776Z,100561.56
2022-12-13T02:34:56.668Z,100562.34
2022-12-13T02:37:32.101Z,100556.72
2022-12-13T02:40:17.843Z,100550.94
2022-12-13T02:43:09.025Z,100555.03
2022-12-13T02:45:46.914Z,100539.94
2022-12-13T02:48:20.195Z,100548.09
2022-12-13T02:50:51.129Z,100557.94
2022-12-13T02:53:21.467Z,100562.38
2022-12-13T02:55:49.376Z,100547.59
2022-12-13T02:58:22.856Z,100550.13
2022-12-13T03:00:58.602Z,100542.81
2022-12-13T03:03:46.600Z,100549.09
2022-12-13T03:06:47.599Z,100549.25
2022-12-13T03:09:36.317Z,100540.84
2022-12-13T03:12:25.410Z,100533.56
2022-12-13T03:15:03.670Z,100542.41
2022-12-13T03:17:37.744Z,100533.38
2022-12-13T03:20:12.789Z,100541.22
2022-12-13T03:22:51.315Z,100543.03
2022-12-13T03:25:32.083Z,100541.09
2022-12-13T03:28:02.479Z,100532.34
2022-12-13T03:30:32.794Z,100530.03
2022-12-13T03:33:00.799Z,100527.59
2022-12-13T03:35:35.065Z,100522.66
2022-12-13T03:38:21.424Z,100532.84
2022-12-13T03:40:55.992Z,100540.06
2022-12-13T03:43:24.867Z,100533.06
2022-12-13T03:45:54.019Z,100534.19
2022-12-13T03:48:23.891Z,100531.81
2022-12-13T03:50:53.906Z,100535.06
2022-12-13T03:53:33.350Z,100535.19
2022-12-13T03:56:06.210Z,100524.41
2022-12-13T03:58:37.347Z,100521.47
2022-12-13T04:01:10.891Z,100526.53
2022-12-13T04:03:39.686Z,100522.16
2022-12-13T04:06:08.056Z,100525.09
2022-12-13T04:08:36.954Z,100521.25
2022-12-13T04:11:25.454Z,100516.06
2022-12-13T04:13:54.534Z,100521.97
2022-12-13T04:16:22.990Z,100519.63
2022-12-13T04:18:51.125Z,100523.59
2022-12-13T04:21:18.759Z,100522.00
2022-12-13T04:23:46.808Z,100516.69
2022-12-13T04:26:14.628Z,100510.19
2022-12-13T04:28:42.186Z,100513.28
2022-12-13T04:31:09.908Z,100513.97
2022-12-13T04:33:37.516Z,100520.97
2022-12-13T04:36:06.244Z,100518.91
2022-12-13T04:38:33.747Z,100514.09
2022-12-13T04:41:14.553Z,100522.38
2022-12-13T04:43:42.808Z,100519.22
2022-12-13T04:46:10.541Z,100528.44
2022-12-13T04:48:38.521Z,100530.84
2022-12-13T04:51:06.504Z,100532.22
2022-12-13T04:53:34.070Z,100530.47
2022-12-13T04:56:03.624Z,100533.41
2022-12-13T04:58:31.727Z,100531.59
2022-12-13T05:00:59.303Z,100521.16
2022-12-13T05:03:29.101Z,100524.19
2022-12-13T05:05:57.556Z,100520.50
2022-12-13T05:08:25.182Z,100517.72
2022-12-13T05:10:54.600Z,100530.69
2022-12-13T05:13:22.122Z,100528.78
2022-12-13T05:15:57.549Z,100528.78
2022-12-13T05:18:26.662Z,100524.22
2022-12-13T05:20:54.667Z,100518.59
2022-12-13T05:23:25.281Z,100530.22
2022-12-13T05:25:53.040Z,100527.53
2022-12-13T05:28:27.604Z,100515.78
2022-12-13T05:30:59.751Z,100527.00
2022-12-13T05:33:27.483Z,100526.63
2022-12-13T05:35:59.960Z,100526.22
2022-12-13T05:38:29.095Z,100530.13
2022-12-13T05:40:57.051Z,100526.38
2022-12-13T05:43:24.661Z,100527.28
2022-12-13T05:46:12.996Z,100518.03
2022-12-13T05:48:40.894Z,100530.13
2022-12-13T05:51:10.093Z,100534.63
2022-12-13T05:53:42.776Z,100530.66
2022-12-13T05:56:11.462Z,100530.97
2022-12-13T05:58:40.572Z,100524.25
2022-12-13T06:01:14.261Z,100517.25
2022-12-13T06:03:42.146Z,100523.56
2022-12-13T06:06:12.412Z,100518.91
2022-12-13T06:08:40.471Z,100526.22
2022-12-13T06:11:10.613Z,100527.53
2022-12-13T06:13:44.401Z,100528.94
2022-12-13T06:16:21.992Z,100521.56
2022-12-13T06:19:03.662Z,100523.75
2022-12-13T06:21:41.285Z,100522.50
2022-12-13T06:24:19.142Z,100525.75
2022-12-13T06:26:47.145Z,100521.41
2022-12-13T06:29:23.714Z,100526.44
2022-12-13T06:32:01.804Z,100523.59
2022-12-13T06:34:35.736Z,100528.44
2022-12-13T06:37:07.263Z,100527.19
2022-12-13T06:39:34.948Z,100536.25
2022-12-13T06:42:06.150Z,100535.66
2022-12-13T06:44:34.891Z,100524.78
2022-12-13T06:47:10.446Z,100534.28
2022-12-13T06:49:43.899Z,100539.41
2022-12-13T06:52:14.220Z,100538.19
2022-12-13T06:54:43.082Z,100534.94
2022-12-13T06:57:12.380Z,100538.25
2022-12-13T06:59:40.934Z,100533.97
2022-12-13T07:02:24.499Z,100542.66
2022-12-13T07:04:53.259Z,100542.50
2022-12-13T07:07:20.745Z,100540.81
2022-12-13T07:09:48.883Z,100543.69
2022-12-13T07:12:16.764Z,100546.00
2022-12-13T07:14:44.706Z,100549.53
2022-12-13T07:17:12.289Z,100546.88
2022-12-13T07:19:40.280Z,100549.88
2022-12-13T07:22:07.969Z,100546.53
2022-12-13T07:24:36.217Z,100548.94
2022-12-13T07:27:04.329Z,100559.72
2022-12-13T07:29:31.912Z,100564.53
2022-12-13T07:32:01.736Z,100558.50
2022-12-13T07:34:30.943Z,100562.75
2022-12-13T07:36:59.178Z,100560.75
2022-12-13T07:39:26.753Z,100558.09
2022-12-13T07:41:55.883Z,100568.03
2022-12-13T07:44:24.642Z,100567.91
2022-12-13T07:46:52.808Z,100562.78
2022-12-13T07:49:20.638Z,100573.16
2022-12-13T07:51:49.298Z,100574.66
2022-12-13T07:54:17.049Z,100569.44
2022-12-13T07:56:44.662Z,100573.78
2022-12-13T07:59:13.665Z,100575.78
2022-12-13T08:01:41.221Z,100586.06
2022-12-13T08:04:10.469Z,100584.16
2022-12-13T08:06:38.452Z,100589.69
2022-12-13T08:09:06.945Z,100584.56
2022-12-13T08:11:34.667Z,100588.69
2022-12-13T08:14:02.263Z,100587.25
2022-12-13T08:17:07.683Z,100591.03
2022-12-13T08:19:36.262Z,100588.56
2022-12-13T08:22:05.070Z,100593.13
2022-12-13T08:24:41.656Z,100591.78
2022-12-13T08:27:09.174Z,100582.75
2022-12-13T08:29:36.725Z,100588.91
2022-12-13T08:32:10.392Z,100581.91
2022-12-13T08:34:38.547Z,100591.69
2022-12-13T08:37:06.587Z,100589.53
2022-12-13T08:39:38.662Z,100595.66
2022-12-13T08:42:17.212Z,100589.38
2022-12-13T08:44:47.897Z,100595.22
2022-12-13T08:47:24.546Z,100592.94
2022-12-13T08:49:55.130Z,100597.22
2022-12-13T08:52:23.861Z,100601.84
2022-12-13T08:54:51.562Z,100600.25
2022-12-13T08:57:19.843Z,100606.50
2022-12-13T08:59:47.326Z,100615.19
2022-12-13T09:02:15.939Z,100619.72
2022-12-13T09:04:43.609Z,100614.91
2022-12-13T09:07:11.612Z,100619.06
2022-12-13T09:09:39.178Z,100620.28
2022-12-13T09:12:10.539Z,100618.50
2022-12-13T09:14:45.633Z,100611.56
2022-12-13T09:17:24.138Z,100617.00
2022-12-13T09:19:57.921Z,100617.38
2022-12-13T09:22:34.020Z,100618.16
2022-12-13T09:25:03.294Z,100612.66
2022-12-13T09:27:39.923Z,100622.59
2022-12-13T09:30:13.092Z,100625.84
2022-12-13T09:32:41.303Z,100621.34
2022-12-13T09:35:09.371Z,100621.69
2022-12-13T09:37:42.555Z,100628.97
2022-12-13T09:40:26.165Z,100629.47
2022-12-13T09:43:12.708Z,100631.56
2022-12-13T09:45:45.577Z,100633.31
2022-12-13T09:48:22.363Z,100628.81
2022-12-13T09:50:58.425Z,100631.34
2022-12-13T09:53:41.075Z,100630.63
2022-12-13T09:56:13.250Z,100638.31
2022-12-13T09:58:41.358Z,100632.53
2022-12-13T10:01:12.205Z,100641.34
2022-12-13T10:03:44.223Z,100635.91
2022-12-13T10:06:23.513Z,100638.91
2022-12-13T10:09:00.956Z,100638.03
2022-12-13T10:11:31.885Z,100647.19
2022-12-13T10:14:08.184Z,100643.44
2022-12-13T10:16:43.806Z,100647.34
2022-12-13T10:19:28.078Z,100641.66
2022-12-13T10:22:01.513Z,100645.63
2022-12-13T10:24:52.139Z,100646.16
2022-12-13T10:27:41.457Z,100639.78
2022-12-13T10:30:13.456Z,100630.38
2022-12-13T10:32:58.013Z,100625.47
2022-12-13T10:35:38.159Z,100627.72
2022-12-13T10:38:08.631Z,100618.13
2022-12-13T10:40:40.722Z,100615.47
2022-12-13T10:43:22.233Z,100611.31
2022-12-13T10:45:59.485Z,100607.06
2022-12-13T10:48:38.337Z,100598.25
2022-12-13T10:51:12.777Z,100595.16
2022-12-13T10:53:59.610Z,100597.28
2022-12-13T10:56:37.766Z,100591.78
2022-12-13T10:59:26.553Z,100588.94
2022-12-13T11:01:55.178Z,100583.31
2022-12-13T11:04:33.051Z,100580.72
2022-12-13T11:07:20.849Z,100574.94
2022-12-13T11:09:52.491Z,100577.19
2022-12-13T11:12:26.780Z,100571.41
2022-12-13T11:14:59.979Z,100572.03
2022-12-13T11:17:31.007Z,100573.00
2022-12-13T11:20:05.721Z,100573.28
2022-12-13T11:22:37.706Z,100570.44
2022-12-13T11:25:25.601Z,100570.84
2022-12-13T11:28:26.572Z,100561.63
2022-12-13T11:31:24.109Z,100563.00
2022-12-13T11:34:09.952Z,100557.34
2022-12-13T11:36:58.765Z,100563.47
2022-12-13T11:39:37.062Z,100563.19
2022-12-13T11:42:28.418Z,100556.50
2022-12-13T11:45:03.362Z,100556.56
2022-12-13T11:47:42.953Z,100549.88
2022-12-13T11:50:32.779Z,100547.03
2022-12-13T11:53:19.327Z,100543.16
2022-12-13T11:56:10.660Z,100547.31
2022-12-13T11:59:20.357Z,100540.88
2022-12-13T12:02:16.745Z,100535.72
2022-12-13T12:05:00.120Z,100537.16
2022-12-13T12:07:33.327Z,100538.88
2022-12-13T12:10:13.531Z,100536.56
2022-12-13T12:12:56.357Z,100534.22
2022-12-13T12:15:33.992Z,100527.66
2022-12-13T12:18:15.571Z,100533.22
2022-12-13T12:21:14.926Z,100534.31
2022-12-13T12:24:09.106Z,100524.03
2022-12-13T12:26:49.189Z,100528.72
2022-12-13T12:29:53.452Z,100521.97
2022-12-13T12:32:34.370Z,100526.84
2022-12-13T12:35:41.803Z,100524.59
2022-12-13T12:38:22.965Z,100519.84
2022-12-13T12:41:16.093Z,100515.78
2022-12-13T12:43:45.307Z,100497.16
2022-12-13T12:46:24.809Z,100510.56
2022-12-13T12:49:29.339Z,100498.22
2022-12-13T12:52:23.905Z,100500.47
2022-12-13T12:55:11.932Z,100487.94
2022-12-13T12:57:51.618Z,100486.38
2022-12-13T13:00:23.639Z,100479.50
2022-12-13T13:03:14.693Z,100498.22
2022-12-13T13:06:05.041Z,100480.25
2022-12-13T13:08:46.724Z,100490.91
2022-12-13T13:11:24.650Z,100494.25
2022-12-13T13:14:01.731Z,100495.81
2022-12-13T13:16:40.303Z,100499.19
2022-12-13T13:19:11.701Z,100498.72
2022-12-13T13:21:49.667Z,100502.00
2022-12-13T13:24:31.757Z,100498.72
2022-12-13T13:27:11.045Z,100511.19
2022-12-13T13:29:43.187Z,100508.75
2022-12-13T13:32:11.969Z,100520.38
2022-12-13T13:34:43.432Z,100513.56
2022-12-13T13:37:24.687Z,100520.22
2022-12-13T13:39:59.941Z,100526.34
2022-12-13T13:42:30.327Z,100516.44
2022-12-13T13:45:03.466Z,100511.97
2022-12-13T13:47:39.555Z,100519.88
2022-12-13T13:50:12.564Z,100523.00
2022-12-13T13:53:13.687Z,100515.75
2022-12-13T13:56:15.007Z,100513.84
2022-12-13T13:58:45.422Z,100523.22
2022-12-13T14:01:24.093Z,100515.81
2022-12-13T14:04:38.144Z,100518.59
2022-12-13T14:07:34.600Z,100521.66
2022-12-13T14:10:26.134Z,100514.31
2022-12-13T14:13:12.461Z,100519.88
2022-12-13T14:15:58.750Z,100519.63
2022-12-13T14:18:29.479Z,100515.81
2022-12-13T14:21:18.037Z,100511.56
2022-12-13T14:23:48.544Z,100514.00
2022-12-13T14:26:41.170Z,100508.50
2022-12-13T14:29:24.677Z,100495.84
2022-12-13T14:31:52.521Z,100489.88
2022-12-13T14:34:28.686Z,100491.56
2022-12-13T14:37:19.961Z,100501.16
2022-12-13T14:39:47.955Z,100500.22
2022-12-13T14:42:25.549Z,100497.31
2022-12-13T14:44:53.584Z,100491.84
2022-12-13T14:47:23.054Z,100485.19
2022-12-13T14:49:55.295Z,100481.38
2022-12-13T14:52:29.140Z,100484.00
2022-12-13T14:54:59.490Z,100484.13
2022-12-13T14:57:29.766Z,100483.28
2022-12-13T14:59:58.973Z,100489.19
2022-12-13T15:02:31.622Z,100489.78
2022-12-13T15:05:02.261Z,100497.31
2022-12-13T15:07:41.740Z,100509.78
2022-12-13T15:10:15.450Z,100505.13
2022-12-13T15:12:44.540Z,100508.44
2022-12-13T15:15:24.708Z,100504.16
2022-12-13T15:18:06.178Z,100505.91
2022-12-13T15:20:46.824Z,100505.00
2022-12-13T15:23:27.416Z,100504.22
2022-12-13T15:26:01.991Z,100515.16
2022-12-13T15:28:34.050Z,100512.16
2022-12-13T15:31:04.486Z,100517.00
2022-12-13T15:33:37.938Z,100519.03
2022-12-13T15:36:11.731Z,100523.69
2022-12-13T15:38:44.013Z,100519.94
2022-12-13T15:41:18.036Z,100526.88
2022-12-13T15:43:54.434Z,100522.75
2022-12-13T15:46:30.401Z,100518.91
2022-12-13T15:49:02.166Z,100510.66
2022-12-13T15:51:30.914Z,100514.53
2022-12-13T15:54:28.827Z,100521.84
2022-12-13T15:57:15.290Z,100522.91
2022-12-13T16:00:20.187Z,100523.78
2022-12-13T16:03:00.231Z,100528.75
2022-12-13T16:05:39.583Z,100531.59
2022-12-13T16:08:17.703Z,100535.63
2022-12-13T16:10:50.748Z,100528.16
2022-12-13T16:13:38.734Z,100536.78
2022-12-13T16:16:29.972Z,100527.59
2022-12-13T16:18:59.712Z,100535.28
2022-12-13T16:21:29.048Z,100528.03
2022-12-13T16:23:56.696Z,100538.84
2022-12-13T16:26:28.744Z,100532.66
2022-12-13T16:29:00.446Z,100531.69
2022-12-13T16:31:36.040Z,100523.38
2022-12-13T16:34:05.130Z,100525.06
2022-12-13T16:36:33.555Z,100522.97
2022-12-13T16:39:01.685Z,100517.69
2022-12-13T16:41:29.669Z,100518.75
2022-12-13T16:44:02.526Z,100522.81
2022-12-13T16:47:14.234Z,100529.59
2022-12-13T16:49:21.142Z,100519.81
2022-12-13T16:51:49.307Z,100514.31
2022-12-13T16:54:18.903Z,100524.09
2022-12-13T16:56:46.877Z,100517.34
2022-12-13T16:59:18.565Z,100520.09
2022-12-13T17:01:46.894Z,100517.50
2022-12-13T17:04:20.564Z,100520.88
2022-12-13T17:06:55.046Z,100523.75
2022-12-13T17:09:25.157Z,100519.81
2022-12-13T17:11:53.287Z,100514.31
2022-12-13T17:14:21.043Z,100508.94
2022-12-13T17:16:48.709Z,100523.06
2022-12-13T17:19:17.566Z,100520.22
2022-12-13T17:21:45.612Z,100517.88
2022-12-13T17:24:13.239Z,100527.97
2022-12-13T17:26:41.381Z,100521.84
2022-12-13T17:29:24.560Z,100528.16
2022-12-13T17:31:53.397Z,100532.94
2022-12-13T17:34:21.170Z,100523.75
2022-12-13T17:36:48.827Z,100519.38
2022-12-13T17:39:17.012Z,100509.22
2022-12-13T17:41:54.890Z,100519.47
2022-12-13T17:44:27.110Z,100508.63
2022-12-13T17:46:55.764Z,100506.13
2022-12-13T17:49:24.577Z,100505.13
2022-12-13T17:51:55.710Z,100512.72
2022-12-13T17:54:25.309Z,100510.13
2022-12-13T17:56:54.500Z,100510.75
2022-12-13T17:59:22.671Z,100512.94
2022-12-13T18:01:51.362Z,100505.97
2022-12-13T18:04:20.073Z,100509.22
2022-12-13T18:06:47.763Z,100497.06
2022-12-13T18:09:15.448Z,100493.69
2022-12-13T18:11:43.377Z,100501.19
2022-12-13T18:14:11.503Z,100489.53
2022-12-13T18:16:40.157Z,100490.88
2022-12-13T18:19:11.371Z,100487.44
2022-12-13T18:21:41.397Z,100481.50
2022-12-13T18:24:10.974Z,100493.00
2022-12-13T18:26:38.690Z,100495.22
2022-12-13T18:29:06.380Z,100491.22
2022-12-13T18:31:34.490Z,100491.38
2022-12-13T18:34:02.188Z,100495.53
2022-12-13T18:36:30.173Z,100492.00
2022-12-13T18:38:58.693Z,100492.63
2022-12-13T18:41:29.147Z,100494.38
2022-12-13T18:44:00.230Z,100493.47
2022-12-13T18:46:30.770Z,100490.13
2022-12-13T18:48:59.627Z,100489.19
2022-12-13T18:51:28.116Z,100489.91
2022-12-13T18:53:56.380Z,100492.06
2022-12-13T18:56:25.934Z,100496.31
2022-12-13T18:58:55.454Z,100498.00
2022-12-13T19:01:27.063Z,100494.75
2022-12-13T19:03:55.371Z,100499.16
2022-12-13T19:06:26.760Z,100492.72
2022-12-13T19:08:56.509Z,100494.47
2022-12-13T19:11:28.476Z,100495.44
2022-12-13T19:13:56.468Z,100490.13
2022-12-13T19:16:25.510Z,100494.47
2022-12-13T19:18:54.119Z,100489.41
2022-12-13T19:21:22.657Z,100492.06
2022-12-13T19:23:57.074Z,100479.56
2022-12-13T19:26:27.141Z,100475.09
2022-12-13T19:28:56.817Z,100487.44
2022-12-13T19:31:30.467Z,100479.72
2022-12-13T19:34:00.712Z,100483.25
2022-12-13T19:36:30.694Z,100480.72
2022-12-13T19:38:58.395Z,100485.91
2022-12-13T19:41:26.637Z,100492.59
2022-12-13T19:43:54.320Z,100496.53
2022-12-13T19:46:22.203Z,100514.09
2022-12-13T19:48:50.554Z,100497.84
2022-12-13T19:51:19.048Z,100501.34
2022-12-13T19:53:46.942Z,100507.72
2022-12-13T19:56:17.872Z,100501.56
2022-12-13T19:58:46.981Z,100510.03
2022-12-13T20:01:15.636Z,100499.53
2022-12-13T20:03:45.727Z,100498.50
2022-12-13T20:06:22.333Z,100499.72
2022-12-13T20:08:50.306Z,100490.91
2022-12-13T20:11:20.883Z,100490.72
2022-12-13T20:13:50.516Z,100499.66
2022-12-13T20:16:21.410Z,100489.56
2022-12-13T20:18:57.646Z,100485.38
2022-12-13T20:21:27.813Z,100489.72
2022-12-13T20:23:55.736Z,100488.44
2022-12-13T20:26:27.677Z,100494.81
2022-12-13T20:28:56.531Z,100503.22
2022-12-13T20:31:27.550Z,100510.03
2022-12-13T20:33:56.478Z,100511.16
2022-12-13T20:36:26.889Z,100512.91
2022-12-13T20:38:57.282Z,100512.22
2022-12-13T20:41:27.167Z,100518.94
2022-12-13T20:43:57.128Z,100506.56
2022-12-13T20:46:26.896Z,100505.16
2022-12-13T20:48:57.968Z,100501.72
2022-12-13T20:51:27.803Z,100504.97
2022-12-13T20:53:56.242Z,100517.88
2022-12-13T20:56:26.260Z,100508.59
2022-12-13T20:58:55.237Z,100510.75
2022-12-13T21:01:25.612Z,100509.06
2022-12-13T21:03:55.668Z,100514.75
2022-12-13T21:06:23.690Z,100510.66
2022-12-13T21:08:51.262Z,100509.44
2022-12-13T21:11:25.628Z,100497.78
2022-12-13T21:14:05.459Z,100496.50
2022-12-13T21:16:46.169Z,100501.91
2022-12-13T21:19:16.997Z,100510.09
2022-12-13T21:21:45.654Z,100499.66
2022-12-13T21:24:15.844Z,100502.25
2022-12-13T21:26:44.778Z,100493.91
2022-12-13T21:29:13.792Z,100494.34
2022-12-13T21:31:49.183Z,100494.47
2022-12-13T21:34:18.553Z,100492.56
2022-12-13T21:36:48.346Z,100484.75
2022-12-13T21:39:28.305Z,100491.66
2022-12-13T21:41:57.149Z,100490.34
2022-12-13T21:44:25.008Z,100495.28
2022-12-13T21:49:41.482Z,100486.34
2022-12-13T21:52:09.203Z,100486.97
2022-12-13T21:54:36.797Z,100487.72
2022-12-13T21:57:23.174Z,100483.47
2022-12-13T21:59:50.835Z,100481.00
2022-12-13T22:02:19.475Z,100490.59
2022-12-13T22:04:55.577Z,100491.44
2022-12-13T22:07:25.864Z,100491.59
2022-12-13T22:09:54.996Z,100491.59
2022-12-13T22:12:24.194Z,100489.81
2022-12-13T22:14:52.725Z,100495.13
2022-12-13T22:17:31.337Z,100485.03
2022-12-13T22:20:02.873Z,100490.53
2022-12-13T22:22:32.405Z,100491.50
2022-12-13T22:25:00.731Z,100497.31
2022-12-13T22:27:28.757Z,100495.16
2022-12-13T22:29:58.168Z,100497.47
2022-12-13T22:32:29.581Z,100490.03
2022-12-13T22:34:57.292Z,100501.63
2022-12-13T22:37:25.361Z,100495.22
2022-12-13T22:39:53.392Z,100498.47
2022-12-13T22:42:21.333Z,100490.88
2022-12-13T22:44:49.188Z,100499.66
2022-12-13T22:47:17.204Z,100493.44
2022-12-13T22:49:45.118Z,100483.31
2022-12-13T22:52:16.833Z,100480.41
2022-12-13T22:54:44.832Z,100477.25
2022-12-13T22:57:12.621Z,100479.41
2022-12-13T22:59:40.591Z,100479.00
2022-12-13T23:02:09.905Z,100463.06
2022-12-13T23:04:37.729Z,100454.66
2022-12-13T23:07:05.276Z,100448.81
2022-12-13T23:09:32.816Z,100452.81
2022-12-13T23:12:32.618Z,100446.72
2022-12-13T23:15:00.123Z,100445.03
2022-12-13T23:17:27.623Z,100436.91
2022-12-13T23:19:55.750Z,100427.16
2022-12-13T23:22:24.918Z,100429.31
2022-12-13T23:24:53.507Z,100420.56
2022-12-13T23:27:23.283Z,100415.84
2022-12-13T23:29:50.870Z,100408.06
2022-12-13T23:32:18.608Z,100408.13
2022-12-13T23:34:46.112Z,100404.97
2022-12-13T23:37:13.738Z,100395.16
2022-12-13T23:39:41.627Z,100395.44
2022-12-13T23:42:09.155Z,100387.38
2022-12-13T23:44:36.785Z,100392.19
2022-12-13T23:47:04.762Z,100399.31
2022-12-13T23:49:32.480Z,100391.53
2022-12-13T23:52:00.648Z,100390.88
2022-12-13T23:54:28.266Z,100389.19
2022-12-13T23:56:56.446Z,100389.19
2022-12-13T23:59:26.222Z,100383.72
